Time;durP1;ratioP1;P1;durP2;ratioP2;P2;SDS_P1;SDS_P2;PMS_P1;PMS_P2;Temp;Humidity;BMP_temperature;BMP_pressure;BME280_temperature;BME280_humidity;BME280_pressure;Samples;Min_cycle;Max_cycle;Signal;HPM_P1;HPM_P2
2023/06/23 00:02:20;;;;;;;13.85;10.55;;;;;;;;;;4841528;29;20053;-83
2023/06/23 00:27:55;;;;;;;15.98;11.10;;;;;;;;;;4696613;30;20049;-83
2023/06/23 00:32:00;;;;;;;;;;;;;;;;;;;;;
2023/06/23 02:07:18;;;;;;;17.92;13.77;;;;;;;;;;4904623;29;20475;-82
2023/06/23 02:10:42;;;;;;;20.67;13.07;;;;;;;;;;4879227;29;20052;-83
2023/06/23 02:13:59;;;;;;;14.55;12.30;;;;;;;;;;4885007;29;20060;-83
2023/06/23 02:16:58;;;;;;;17.38;11.85;;;;;;;;;;4887683;29;20036;-83
2023/06/23 02:19:47;;;;;;;17.85;12.52;;;;;;;;;;4884841;29;20048;-83
2023/06/23 02:22:33;;;;;;;17.08;12.40;;;;;;;;;;4891400;29;20487;-83
2023/06/23 02:25:19;;;;;;;17.60;13.45;;;;;;;;;;4901775;29;20040;-84
2023/06/23 02:28:07;;;;;;;17.65;12.85;;;;;;;;;;4902308;29;20040;-84
2023/06/23 02:30:55;;;;;;;18.25;13.30;;;;;;;;;;4894509;29;20044;-84
2023/06/23 02:33:41;;;;;;;16.50;13.45;;;;;;;;;;4902940;29;20495;-82
2023/06/23 02:36:33;;;;;;;21.08;13.68;;;;;;;;;;4896242;29;20052;-84
2023/06/23 02:39:20;;;;;;;20.38;13.77;;;;;;;;;;4902051;29;20052;-83
2023/06/23 02:42:14;;;;;;;18.15;13.48;;;;;;;;;;4894987;29;20048;-82
2023/06/23 02:45:03;;;;;;;15.75;13.93;;;;;;;;;;4895955;29;20041;-83
2023/06/23 02:47:54;;;;;;;20.55;15.13;;;;;;;;;;4893597;29;20057;-83
2023/06/23 02:50:44;;;;;;;19.90;14.25;;;;;;;;;;4881111;29;20048;-84
2023/06/23 02:53:41;;;;;;;20.92;13.80;;;;;;;;;;4893843;29;20399;-84
2023/06/23 02:56:32;;;;;;;18.75;13.43;;;;;;;;;;4893826;29;20040;-84
2023/06/23 02:59:21;;;;;;;15.88;12.10;;;;;;;;;;4892773;29;20052;-84
2023/06/23 03:02:11;;;;;;;17.05;12.15;;;;;;;;;;4900444;29;20478;-83
2023/06/23 03:04:58;;;;;;;14.45;12.35;;;;;;;;;;4901296;29;20041;-84
2023/06/23 03:07:51;;;;;;;14.93;12.77;;;;;;;;;;4893125;29;20048;-81
2023/06/23 03:10:36;;;;;;;15.02;12.80;;;;;;;;;;4893695;29;20403;-82
2023/06/23 03:13:22;;;;;;;15.80;12.13;;;;;;;;;;4890656;29;20056;-83
2023/06/23 03:16:15;;;;;;;15.85;12.30;;;;;;;;;;4901113;29;20463;-83
2023/06/23 03:19:30;;;;;;;18.13;13.40;;;;;;;;;;4893340;29;20045;-83
2023/06/23 03:22:57;;;;;;;16.92;13.52;;;;;;;;;;4901050;29;20040;-83
2023/06/23 03:25:47;;;;;;;16.08;12.30;;;;;;;;;;4836856;29;20053;-83
2023/06/23 03:28:34;;;;;;;16.08;12.93;;;;;;;;;;4900457;29;20052;-84
2023/06/23 03:31:21;;;;;;;16.80;12.45;;;;;;;;;;4893199;29;20049;-84
2023/06/23 03:34:07;;;;;;;16.55;12.85;;;;;;;;;;4892902;29;20041;-84
2023/06/23 03:36:56;;;;;;;18.50;12.93;;;;;;;;;;4899654;29;20491;-84
2023/06/23 03:39:43;;;;;;;19.73;12.57;;;;;;;;;;4900584;29;20395;-84
2023/06/23 03:42:29;;;;;;;21.25;13.05;;;;;;;;;;4907552;29;20494;-84
2023/06/23 03:45:16;;;;;;;22.35;12.50;;;;;;;;;;4906004;29;20048;-84
2023/06/23 03:48:06;;;;;;;20.23;12.73;;;;;;;;;;4899763;29;20044;-84
2023/06/23 03:50:54;;;;;;;17.33;12.38;;;;;;;;;;4900488;29;20403;-84
2023/06/23 03:53:40;;;;;;;18.52;12.05;;;;;;;;;;4885770;29;20048;-84
2023/06/23 03:56:30;;;;;;;20.88;12.80;;;;;;;;;;4906423;29;20036;-84
2023/06/23 03:59:17;;;;;;;18.55;11.70;;;;;;;;;;4899947;29;20049;-85
2023/06/23 04:02:05;;;;;;;19.05;12.32;;;;;;;;;;4899625;29;20391;-84
2023/06/23 04:04:54;;;;;;;16.95;11.55;;;;;;;;;;4900014;29;20037;-84
2023/06/23 04:07:40;;;;;;;16.73;12.27;;;;;;;;;;4899837;29;20044;-84
2023/06/23 04:10:28;;;;;;;19.13;12.15;;;;;;;;;;4899790;29;20049;-84
2023/06/23 04:13:15;;;;;;;15.40;12.20;;;;;;;;;;4885352;29;20045;-84
2023/06/23 04:16:03;;;;;;;19.33;12.57;;;;;;;;;;4899653;29;20398;-84
2023/06/23 04:18:51;;;;;;;17.52;12.27;;;;;;;;;;4900101;29;20040;-83
2023/06/23 04:21:38;;;;;;;17.25;11.52;;;;;;;;;;4899854;29;20049;-83
2023/06/23 04:24:24;;;;;;;13.45;11.85;;;;;;;;;;4899650;29;20045;-83
2023/06/23 04:27:12;;;;;;;14.48;11.45;;;;;;;;;;4899240;29;20045;-83
2023/06/23 04:29:58;;;;;;;18.52;12.02;;;;;;;;;;4899534;29;20044;-83
2023/06/23 04:32:47;;;;;;;15.80;11.32;;;;;;;;;;4885361;29;20049;-83
2023/06/23 04:35:37;;;;;;;13.95;11.27;;;;;;;;;;4891298;29;20056;-83
2023/06/23 04:38:28;;;;;;;20.02;12.45;;;;;;;;;;4899447;29;20395;-83
2023/06/23 04:41:19;;;;;;;13.68;11.63;;;;;;;;;;4891243;29;20036;-83
2023/06/23 04:44:08;;;;;;;14.90;11.95;;;;;;;;;;4899252;29;20052;-84
2023/06/23 04:47:01;;;;;;;16.10;10.75;;;;;;;;;;4898588;29;20045;-84
2023/06/23 04:49:58;;;;;;;16.95;12.00;;;;;;;;;;4891035;29;20052;-82
2023/06/23 04:52:49;;;;;;;17.10;10.73;;;;;;;;;;4905782;29;20044;-84
2023/06/23 04:55:37;;;;;;;17.23;11.32;;;;;;;;;;4905637;29;20052;-83
2023/06/23 04:58:23;;;;;;;20.17;10.65;;;;;;;;;;4898635;29;20490;-84
2023/06/23 05:01:11;;;;;;;20.13;11.75;;;;;;;;;;4898635;29;20056;-85
2023/06/23 05:04:00;;;;;;;15.63;10.80;;;;;;;;;;4898476;29;20037;-85
2023/06/23 05:06:47;;;;;;;20.85;11.02;;;;;;;;;;4905470;29;20475;-83
2023/06/23 05:09:35;;;;;;;18.63;10.68;;;;;;;;;;4905320;29;20391;-81
2023/06/23 05:12:23;;;;;;;14.45;10.30;;;;;;;;;;4891477;29;20053;-85
2023/06/23 05:15:10;;;;;;;15.30;11.07;;;;;;;;;;4898067;29;20776;-85
2023/06/23 05:17:58;;;;;;;19.35;11.25;;;;;;;;;;4897398;29;20044;-83
2023/06/23 05:20:46;;;;;;;15.20;11.55;;;;;;;;;;4899030;29;20037;-83
2023/06/23 05:23:37;;;;;;;16.77;11.55;;;;;;;;;;4898504;29;20049;-84
2023/06/23 05:26:33;;;;;;;17.67;11.02;;;;;;;;;;4898933;29;20403;-84
2023/06/23 05:29:20;;;;;;;13.32;10.15;;;;;;;;;;4904262;29;20052;-84
2023/06/23 05:32:10;;;;;;;12.20;9.38;;;;;;;;;;4898783;29;20487;-84
2023/06/23 05:34:59;;;;;;;14.90;10.00;;;;;;;;;;4890885;29;20395;-83
2023/06/23 05:37:46;;;;;;;11.70;9.40;;;;;;;;;;4897566;29;20391;-84
2023/06/23 05:40:32;;;;;;;17.20;8.90;;;;;;;;;;4897912;29;20383;-84
2023/06/23 05:43:17;;;;;;;15.77;8.77;;;;;;;;;;4898245;29;20044;-83
2023/06/23 05:46:08;;;;;;;14.00;9.75;;;;;;;;;;4898272;29;20049;-84
2023/06/23 05:49:00;;;;;;;11.85;8.60;;;;;;;;;;4898379;29;20049;-83
2023/06/23 05:51:53;;;;;;;12.68;8.95;;;;;;;;;;4897998;29;20048;-83
2023/06/23 05:54:42;;;;;;;13.82;9.90;;;;;;;;;;4893258;29;20048;-83
2023/06/23 05:57:31;;;;;;;15.50;9.75;;;;;;;;;;4899641;29;20044;-84
2023/06/23 06:00:19;;;;;;;12.00;8.95;;;;;;;;;;4902309;29;20049;-84
2023/06/23 06:03:09;;;;;;;12.73;9.00;;;;;;;;;;4901869;29;20052;-82
2023/06/23 06:05:57;;;;;;;16.85;8.98;;;;;;;;;;4901806;29;20040;-84
2023/06/23 06:08:44;;;;;;;11.45;10.15;;;;;;;;;;4901966;29;20045;-84
2023/06/23 06:11:30;;;;;;;13.57;8.90;;;;;;;;;;4901491;29;20048;-83
2023/06/23 06:14:17;;;;;;;14.18;9.30;;;;;;;;;;4901800;29;20049;-84
2023/06/23 06:17:05;;;;;;;12.30;9.10;;;;;;;;;;4908290;29;20359;-84
2023/06/23 06:19:56;;;;;;;12.68;9.75;;;;;;;;;;4899959;29;20503;-86
2023/06/23 06:22:44;;;;;;;14.55;9.02;;;;;;;;;;4893563;29;20078;-84
2023/06/23 06:25:32;;;;;;;17.55;8.98;;;;;;;;;;4901243;29;20057;-83
2023/06/23 06:28:19;;;;;;;15.27;9.40;;;;;;;;;;4900915;29;20037;-83
2023/06/23 06:31:07;;;;;;;11.38;9.23;;;;;;;;;;4902192;29;20048;-84
2023/06/23 06:33:54;;;;;;;13.48;9.05;;;;;;;;;;4901617;29;20048;-84
2023/06/23 06:36:42;;;;;;;12.30;9.55;;;;;;;;;;4902984;29;20044;-85
2023/06/23 06:39:29;;;;;;;12.70;9.75;;;;;;;;;;4901412;29;20052;-82
2023/06/23 06:42:14;;;;;;;14.68;9.88;;;;;;;;;;4901246;29;20052;-83
2023/06/23 06:45:00;;;;;;;14.10;10.18;;;;;;;;;;4901585;29;20056;-82
2023/06/23 06:47:47;;;;;;;14.77;9.10;;;;;;;;;;4901472;29;20044;-82
2023/06/23 06:50:35;;;;;;;14.40;9.32;;;;;;;;;;4903195;29;20048;-85
2023/06/23 06:53:21;;;;;;;15.50;9.27;;;;;;;;;;4910692;29;20048;-84
2023/06/23 06:56:07;;;;;;;13.60;8.60;;;;;;;;;;4911277;29;20041;-83
2023/06/23 06:58:53;;;;;;;17.52;8.93;;;;;;;;;;4902388;29;20398;-83
2023/06/23 07:01:40;;;;;;;17.02;8.50;;;;;;;;;;4900434;29;20049;-83
2023/06/23 07:04:28;;;;;;;19.50;9.20;;;;;;;;;;4887437;29;20513;-83
2023/06/23 07:07:16;;;;;;;11.60;8.07;;;;;;;;;;4901113;29;20040;-83
2023/06/23 07:10:05;;;;;;;15.68;8.30;;;;;;;;;;4900828;29;20387;-82
2023/06/23 07:12:51;;;;;;;13.02;8.80;;;;;;;;;;4893489;29;20048;-82
2023/06/23 07:16:01;;;;;;;13.15;8.40;;;;;;;;;;4890102;29;20049;-81
2023/06/23 07:18:50;;;;;;;15.65;8.63;;;;;;;;;;4881401;29;20417;-76
2023/06/23 07:21:34;;;;;;;16.70;8.45;;;;;;;;;;4908765;29;20052;-76
2023/06/23 07:24:20;;;;;;;13.32;8.70;;;;;;;;;;4902886;29;20048;-78
2023/06/23 07:27:08;;;;;;;20.92;8.35;;;;;;;;;;4908426;29;20041;-78
2023/06/23 07:29:53;;;;;;;18.38;8.90;;;;;;;;;;4906819;29;20048;-79
2023/06/23 07:32:39;;;;;;;13.55;8.52;;;;;;;;;;4900799;29;20052;-79
2023/06/23 07:35:23;;;;;;;20.77;9.38;;;;;;;;;;4900804;29;20044;-78
2023/06/23 07:38:09;;;;;;;14.55;9.55;;;;;;;;;;4900684;29;20041;-79
2023/06/23 07:40:54;;;;;;;16.17;10.13;;;;;;;;;;4900721;29;20053;-78
2023/06/23 07:43:44;;;;;;;18.15;9.38;;;;;;;;;;4906820;29;20052;-79
2023/06/23 07:46:29;;;;;;;13.02;9.15;;;;;;;;;;4899880;29;20410;-78
2023/06/23 07:49:15;;;;;;;15.35;9.98;;;;;;;;;;4893670;29;20503;-80
2023/06/23 07:52:00;;;;;;;15.73;9.95;;;;;;;;;;4899883;29;20066;-80
2023/06/23 07:54:47;;;;;;;15.60;9.35;;;;;;;;;;4900430;29;20479;-79
2023/06/23 07:57:32;;;;;;;15.50;10.02;;;;;;;;;;4899829;29;20048;-78
2023/06/23 08:00:18;;;;;;;17.10;9.52;;;;;;;;;;4899865;29;20048;-78
2023/06/23 08:03:03;;;;;;;15.07;10.05;;;;;;;;;;4900162;29;20044;-79
2023/06/23 08:05:49;;;;;;;14.25;9.15;;;;;;;;;;4899834;29;20048;-78
2023/06/23 08:08:34;;;;;;;13.50;8.80;;;;;;;;;;4899711;29;20044;-79
2023/06/23 08:11:20;;;;;;;14.50;9.13;;;;;;;;;;4905714;29;20056;-78
2023/06/23 08:14:07;;;;;;;14.02;9.13;;;;;;;;;;4899311;29;20045;-78
2023/06/23 08:16:53;;;;;;;19.35;9.15;;;;;;;;;;4905946;29;20045;-78
2023/06/23 08:19:38;;;;;;;13.27;8.85;;;;;;;;;;4899791;29;20064;-78
2023/06/23 08:22:23;;;;;;;15.68;9.45;;;;;;;;;;4906005;29;20049;-78
2023/06/23 08:25:09;;;;;;;13.88;8.68;;;;;;;;;;4905348;29;20048;-78
2023/06/23 08:27:54;;;;;;;9.98;8.60;;;;;;;;;;4905808;29;20048;-78
2023/06/23 08:30:40;;;;;;;12.80;9.35;;;;;;;;;;4905818;29;20049;-78
2023/06/23 08:33:26;;;;;;;10.50;8.60;;;;;;;;;;4899470;29;20048;-80
2023/06/23 08:36:11;;;;;;;10.95;8.02;;;;;;;;;;4899456;29;20402;-79
2023/06/23 08:38:57;;;;;;;13.55;8.23;;;;;;;;;;4899147;29;20040;-79
2023/06/23 08:41:43;;;;;;;16.98;8.35;;;;;;;;;;4906107;29;20044;-82
2023/06/23 08:44:32;;;;;;;16.02;8.23;;;;;;;;;;4906203;29;20051;-81
2023/06/23 08:47:20;;;;;;;14.68;8.50;;;;;;;;;;4900170;29;20041;-82
2023/06/23 08:50:08;;;;;;;11.80;7.72;;;;;;;;;;4905257;29;20053;-76
2023/06/23 08:52:53;;;;;;;18.00;9.55;;;;;;;;;;4899270;29;20049;-76
2023/06/23 08:55:39;;;;;;;16.15;8.02;;;;;;;;;;4901202;29;20057;-84
2023/06/23 08:58:25;;;;;;;12.10;8.30;;;;;;;;;;4905030;29;20491;-83
2023/06/23 09:01:10;;;;;;;10.45;8.25;;;;;;;;;;4910235;29;20045;-85
2023/06/23 09:03:56;;;;;;;18.90;8.73;;;;;;;;;;4892414;29;20048;-77
2023/06/23 09:06:42;;;;;;;13.38;8.30;;;;;;;;;;4905422;29;20048;-77
2023/06/23 09:09:27;;;;;;;12.60;8.70;;;;;;;;;;4890130;29;20395;-77
2023/06/23 09:12:20;;;;;;;10.50;7.97;;;;;;;;;;4898835;29;20044;-77
2023/06/23 09:15:08;;;;;;;10.70;7.55;;;;;;;;;;4899219;29;20057;-82
2023/06/23 09:17:56;;;;;;;14.52;8.13;;;;;;;;;;4899547;29;20041;-81
2023/06/23 09:20:48;;;;;;;12.88;8.55;;;;;;;;;;4900321;29;20052;-81
2023/06/23 09:23:35;;;;;;;11.85;9.10;;;;;;;;;;4886100;29;20048;-80
2023/06/23 09:26:20;;;;;;;10.57;8.77;;;;;;;;;;4901370;29;20048;-85
2023/06/23 09:29:20;;;;;;;14.25;9.02;;;;;;;;;;4906917;29;20066;-84
2023/06/23 09:32:09;;;;;;;12.85;8.85;;;;;;;;;;4913780;29;20048;-82
2023/06/23 09:34:55;;;;;;;13.20;8.75;;;;;;;;;;4903609;29;20052;-85
2023/06/23 09:37:40;;;;;;;14.80;8.90;;;;;;;;;;4903673;29;20037;-84
2023/06/23 09:40:29;;;;;;;11.85;7.90;;;;;;;;;;4891798;29;20060;-82
2023/06/23 09:43:15;;;;;;;12.73;8.32;;;;;;;;;;4899033;29;20056;-79
2023/06/23 09:46:06;;;;;;;15.25;8.90;;;;;;;;;;4905207;29;20056;-78
2023/06/23 09:48:52;;;;;;;14.55;8.30;;;;;;;;;;4911452;29;20049;-81
2023/06/23 09:51:44;;;;;;;10.40;8.07;;;;;;;;;;4903283;29;20491;-83
2023/06/23 09:54:35;;;;;;;11.32;8.15;;;;;;;;;;4898862;29;20048;-83
2023/06/23 09:57:20;;;;;;;10.02;8.30;;;;;;;;;;4906579;29;20041;-84
2023/06/23 10:00:08;;;;;;;16.80;8.18;;;;;;;;;;4904136;29;20048;-84
2023/06/23 10:02:54;;;;;;;11.70;8.23;;;;;;;;;;4905098;29;20052;-84
2023/06/23 10:05:40;;;;;;;12.63;8.27;;;;;;;;;;4900850;29;20045;-82
2023/06/23 10:08:28;;;;;;;12.68;8.50;;;;;;;;;;4886461;29;20052;-80
2023/06/23 10:11:18;;;;;;;13.60;7.78;;;;;;;;;;4904301;29;20479;-75
2023/06/23 10:14:07;;;;;;;12.77;8.13;;;;;;;;;;4900754;29;20048;-76
2023/06/23 10:16:57;;;;;;;11.35;8.02;;;;;;;;;;4897931;29;20052;-76
2023/06/23 10:19:54;;;;;;;13.95;9.18;;;;;;;;;;4904678;29;20479;-80
2023/06/23 10:22:40;;;;;;;15.57;8.32;;;;;;;;;;4904515;29;20048;-80
2023/06/23 10:25:27;;;;;;;12.23;8.55;;;;;;;;;;4898259;29;20052;-83
2023/06/23 10:28:16;;;;;;;11.38;8.60;;;;;;;;;;4904300;29;20494;-75
2023/06/23 10:31:04;;;;;;;16.45;8.73;;;;;;;;;;4898318;29;20411;-80
2023/06/23 10:33:51;;;;;;;12.85;8.38;;;;;;;;;;4904533;29;20491;-76
2023/06/23 10:36:40;;;;;;;11.07;8.27;;;;;;;;;;4896865;29;20041;-79
2023/06/23 10:39:28;;;;;;;13.68;8.25;;;;;;;;;;4897965;29;20036;-79
2023/06/23 10:42:15;;;;;;;13.13;8.30;;;;;;;;;;4897846;29;20048;-77
2023/06/23 10:45:02;;;;;;;13.23;8.68;;;;;;;;;;4901332;29;20045;-77
2023/06/23 10:47:48;;;;;;;12.35;8.57;;;;;;;;;;4907425;29;20406;-76
2023/06/23 10:50:34;;;;;;;11.32;8.60;;;;;;;;;;4901420;29;20044;-79
2023/06/23 10:53:28;;;;;;;12.65;8.85;;;;;;;;;;4887197;29;20060;-76
2023/06/23 10:56:33;;;;;;;14.90;8.35;;;;;;;;;;4907569;29;20052;-76
2023/06/23 10:59:24;;;;;;;16.15;8.90;;;;;;;;;;4901133;29;20406;-80
2023/06/23 11:02:23;;;;;;;11.10;8.55;;;;;;;;;;4901219;29;20048;-78
2023/06/23 11:05:19;;;;;;;10.43;8.38;;;;;;;;;;4901189;29;20056;-77
2023/06/23 11:08:12;;;;;;;14.00;9.02;;;;;;;;;;4906724;29;20048;-80
2023/06/23 11:11:06;;;;;;;13.60;9.07;;;;;;;;;;4901050;29;20052;-77
2023/06/23 11:13:52;;;;;;;15.60;8.52;;;;;;;;;;4900432;29;20056;-77
2023/06/23 11:16:38;;;;;;;14.23;7.90;;;;;;;;;;4900813;29;20048;-77
2023/06/23 11:19:29;;;;;;;12.07;8.00;;;;;;;;;;4900671;29;20052;-79
2023/06/23 11:22:23;;;;;;;15.77;8.40;;;;;;;;;;4900277;29;20056;-77
2023/06/23 11:25:08;;;;;;;13.15;8.23;;;;;;;;;;4900632;29;20391;-77
2023/06/23 11:28:34;;;;;;;14.38;8.07;;;;;;;;;;4900475;29;20053;-83
2023/06/23 11:31:21;;;;;;;15.80;8.50;;;;;;;;;;4900576;29;20044;-76
2023/06/23 11:34:06;;;;;;;14.23;8.18;;;;;;;;;;4907005;29;20044;-75
2023/06/23 11:36:52;;;;;;;16.27;8.77;;;;;;;;;;4900290;29;20049;-78
2023/06/23 11:39:38;;;;;;;12.90;8.27;;;;;;;;;;4900271;29;20048;-77
2023/06/23 11:42:23;;;;;;;13.77;8.15;;;;;;;;;;4900798;29;20394;-79
2023/06/23 11:45:09;;;;;;;15.35;8.65;;;;;;;;;;4894672;29;20490;-79
2023/06/23 11:47:54;;;;;;;14.25;7.78;;;;;;;;;;4900396;29;20049;-78
2023/06/23 11:50:43;;;;;;;12.65;7.85;;;;;;;;;;4906584;29;20423;-79
2023/06/23 11:53:29;;;;;;;17.88;8.50;;;;;;;;;;4906888;29;20044;-75
2023/06/23 11:56:16;;;;;;;14.32;8.27;;;;;;;;;;4899143;29;20057;-77
2023/06/23 11:59:03;;;;;;;16.85;8.57;;;;;;;;;;4900379;29;20078;-79
2023/06/23 12:01:50;;;;;;;18.95;8.77;;;;;;;;;;4899772;29;20044;-76
2023/06/23 12:04:36;;;;;;;16.73;8.30;;;;;;;;;;4900001;29;20056;-76
2023/06/23 12:07:25;;;;;;;13.98;8.48;;;;;;;;;;4899936;29;20052;-77
2023/06/23 12:10:10;;;;;;;16.95;9.05;;;;;;;;;;4900342;29;20048;-80
2023/06/23 12:12:58;;;;;;;12.57;8.25;;;;;;;;;;4900160;29;20041;-80
2023/06/23 12:15:44;;;;;;;15.77;7.80;;;;;;;;;;4899623;29;20411;-79
2023/06/23 12:18:29;;;;;;;15.93;7.95;;;;;;;;;;4905897;29;20041;-80
2023/06/23 12:21:17;;;;;;;16.98;8.25;;;;;;;;;;4906252;29;20053;-84
2023/06/23 12:24:02;;;;;;;15.15;8.27;;;;;;;;;;4893074;29;20060;-80
2023/06/23 12:26:50;;;;;;;15.02;8.10;;;;;;;;;;4899939;29;20040;-81
2023/06/23 12:29:35;;;;;;;14.25;8.55;;;;;;;;;;4892012;29;20045;-80
2023/06/23 12:32:29;;;;;;;13.80;8.23;;;;;;;;;;4900350;29;20053;-82
2023/06/23 12:35:16;;;;;;;15.25;8.68;;;;;;;;;;4909240;29;20052;-82
2023/06/23 12:38:01;;;;;;;17.23;8.20;;;;;;;;;;4899345;29;20045;-80
2023/06/23 12:40:47;;;;;;;12.98;8.70;;;;;;;;;;4899121;29;20410;-82
2023/06/23 12:43:33;;;;;;;15.85;8.38;;;;;;;;;;4899166;29;20044;-85
2023/06/23 12:46:27;;;;;;;15.82;8.52;;;;;;;;;;4899098;29;20427;-84
2023/06/23 12:49:12;;;;;;;;;;;;;;;;;;4901617;29;20041;-81
2023/06/23 12:52:00;;;;;;;13.25;8.18;;;;;;;;;;4899425;29;19963;-83
2023/06/23 12:54:45;;;;;;;42.67;19.02;;;;;;;;;;4899068;29;20036;-81
2023/06/23 12:57:31;;;;;;;20.13;10.70;;;;;;;;;;4905552;29;20040;-82
2023/06/23 13:00:18;;;;;;;18.90;8.88;;;;;;;;;;4899079;29;20040;-82
2023/06/23 13:03:04;;;;;;;25.20;10.07;;;;;;;;;;4906068;29;20052;-81
2023/06/23 13:05:50;;;;;;;18.65;8.25;;;;;;;;;;4905765;29;20044;-84
2023/06/23 13:08:36;;;;;;;18.85;8.65;;;;;;;;;;4891529;29;20045;-83
2023/06/23 13:11:21;;;;;;;15.05;8.07;;;;;;;;;;4899318;29;20040;-82
2023/06/23 13:14:06;;;;;;;14.68;8.57;;;;;;;;;;4884894;29;20052;-81
2023/06/23 13:16:52;;;;;;;16.45;8.45;;;;;;;;;;4898746;29;20052;-80
2023/06/23 13:19:38;;;;;;;18.35;8.68;;;;;;;;;;4898897;29;20044;-80
2023/06/23 13:22:23;;;;;;;20.40;8.68;;;;;;;;;;4904525;29;20045;-80
2023/06/23 13:25:09;;;;;;;19.83;8.98;;;;;;;;;;4898814;29;20056;-79
2023/06/23 13:27:54;;;;;;;14.43;8.68;;;;;;;;;;4904465;29;20352;-78
2023/06/23 13:30:40;;;;;;;14.45;8.50;;;;;;;;;;4905919;29;20044;-79
2023/06/23 13:33:25;;;;;;;14.50;8.13;;;;;;;;;;4898846;29;20048;-79
2023/06/23 13:36:10;;;;;;;16.23;8.40;;;;;;;;;;4898487;29;20052;-80
2023/06/23 13:38:56;;;;;;;15.02;7.95;;;;;;;;;;4905546;29;20048;-78
2023/06/23 13:41:41;;;;;;;14.52;9.25;;;;;;;;;;4904493;29;20491;-79
2023/06/23 13:44:28;;;;;;;14.65;8.05;;;;;;;;;;4898842;29;20395;-78
2023/06/23 13:47:14;;;;;;;28.52;12.65;;;;;;;;;;4905049;29;20075;-77
2023/06/23 13:49:59;;;;;;;29.02;14.40;;;;;;;;;;4904835;29;20045;-80
2023/06/23 13:52:45;;;;;;;22.92;12.65;;;;;;;;;;4883973;29;20056;-78
2023/06/23 13:55:30;;;;;;;18.45;9.10;;;;;;;;;;4898654;29;20049;-78
2023/06/23 13:58:44;;;;;;;31.55;15.35;;;;;;;;;;4898480;29;20053;-82
2023/06/23 14:01:31;;;;;;;22.45;10.07;;;;;;;;;;4897987;29;20068;-84
2023/06/23 14:04:20;;;;;;;14.50;9.43;;;;;;;;;;4905540;29;20048;-83
2023/06/23 14:07:05;;;;;;;25.63;14.10;;;;;;;;;;4897673;29;20049;-79
2023/06/23 14:09:51;;;;;;;18.38;10.90;;;;;;;;;;4898280;29;20483;-83
2023/06/23 14:12:37;;;;;;;14.95;8.93;;;;;;;;;;4898957;29;20053;-82
2023/06/23 14:15:22;;;;;;;21.85;11.57;;;;;;;;;;4898577;29;20087;-84
2023/06/23 14:18:11;;;;;;;26.50;14.18;;;;;;;;;;4898950;29;20491;-82
2023/06/23 14:20:56;;;;;;;22.45;11.48;;;;;;;;;;4902274;29;20048;-81
2023/06/23 14:23:45;;;;;;;19.08;9.52;;;;;;;;;;4901607;29;20619;-84
2023/06/23 14:26:31;;;;;;;15.25;9.52;;;;;;;;;;4902489;29;20056;-81
2023/06/23 14:29:21;;;;;;;27.70;15.82;;;;;;;;;;4901635;29;20045;-80
2023/06/23 14:32:06;;;;;;;21.45;10.85;;;;;;;;;;4901895;29;20048;-83
2023/06/23 14:34:52;;;;;;;19.30;8.95;;;;;;;;;;4901868;29;20049;-81
2023/06/23 14:37:38;;;;;;;13.77;8.85;;;;;;;;;;4901543;29;20044;-80
2023/06/23 14:40:24;;;;;;;17.42;8.82;;;;;;;;;;4901556;29;20399;-80
2023/06/23 14:43:09;;;;;;;16.75;9.30;;;;;;;;;;4901746;29;20482;-80
2023/06/23 14:45:55;;;;;;;14.52;8.35;;;;;;;;;;4908245;29;20040;-80
2023/06/23 14:48:40;;;;;;;15.98;8.60;;;;;;;;;;4901778;29;20044;-80
2023/06/23 14:51:26;;;;;;;18.75;9.43;;;;;;;;;;4901834;29;20044;-80
2023/06/23 14:54:11;;;;;;;25.00;9.07;;;;;;;;;;4901937;29;20410;-81
2023/06/23 14:56:57;;;;;;;18.98;9.30;;;;;;;;;;4901811;29;20050;-80
2023/06/23 14:59:43;;;;;;;17.02;9.13;;;;;;;;;;4901425;29;20499;-80
2023/06/23 15:02:29;;;;;;;15.70;8.45;;;;;;;;;;4901270;29;20052;-79
2023/06/23 15:05:15;;;;;;;16.90;9.10;;;;;;;;;;4901632;29;20064;-80
2023/06/23 15:08:00;;;;;;;18.52;8.95;;;;;;;;;;4900791;29;20487;-81
2023/06/23 15:10:47;;;;;;;13.50;8.45;;;;;;;;;;4901255;29;20052;-79
2023/06/23 15:13:33;;;;;;;23.23;10.15;;;;;;;;;;4900812;29;20052;-81
2023/06/23 15:16:18;;;;;;;21.45;10.88;;;;;;;;;;4901156;29;20045;-80
2023/06/23 15:19:04;;;;;;;20.17;10.38;;;;;;;;;;4900627;29;20040;-80
2023/06/23 15:21:51;;;;;;;19.80;10.85;;;;;;;;;;4901420;29;20060;-79
2023/06/23 15:24:37;;;;;;;19.75;10.48;;;;;;;;;;4901239;29;20403;-80
2023/06/23 15:27:23;;;;;;;22.00;10.35;;;;;;;;;;4886792;29;20052;-80
2023/06/23 15:30:12;;;;;;;22.98;10.63;;;;;;;;;;4901339;29;20487;-81
2023/06/23 15:32:58;;;;;;;19.83;10.43;;;;;;;;;;4900567;29;20048;-85
2023/06/23 15:35:46;;;;;;;17.90;9.40;;;;;;;;;;4900420;29;20056;-83
2023/06/23 15:38:37;;;;;;;20.17;9.52;;;;;;;;;;4886904;29;20049;-79
2023/06/23 15:41:42;;;;;;;17.60;9.25;;;;;;;;;;4902188;29;20052;-89
2023/06/23 15:44:39;;;;;;;17.42;9.48;;;;;;;;;;4901112;29;20427;-90
2023/06/23 15:47:24;;;;;;;18.15;8.90;;;;;;;;;;4909067;29;20044;-82
2023/06/23 15:50:10;;;;;;;15.63;9.45;;;;;;;;;;4900850;29;20487;-81
2023/06/23 15:52:56;;;;;;;18.25;9.70;;;;;;;;;;4901821;29;20044;-81
2023/06/23 15:55:41;;;;;;;17.75;9.27;;;;;;;;;;4900704;29;20045;-81
2023/06/23 15:58:27;;;;;;;19.00;9.85;;;;;;;;;;4906922;29;20052;-76
2023/06/23 16:01:13;;;;;;;18.60;10.05;;;;;;;;;;4906669;29;20048;-76
2023/06/23 16:03:59;;;;;;;26.80;11.50;;;;;;;;;;4900617;29;20410;-82
2023/06/23 16:06:45;;;;;;;26.77;11.85;;;;;;;;;;4892391;29;20406;-83
2023/06/23 16:09:30;;;;;;;18.05;10.73;;;;;;;;;;4906389;29;20490;-81
2023/06/23 16:12:16;;;;;;;25.67;10.45;;;;;;;;;;4901869;29;20044;-81
2023/06/23 16:15:21;;;;;;;25.05;12.10;;;;;;;;;;4900703;29;20044;-81
2023/06/23 16:18:06;;;;;;;27.02;13.05;;;;;;;;;;4903231;29;20514;-81
2023/06/23 16:20:54;;;;;;;27.45;12.77;;;;;;;;;;4906456;29;20037;-77
2023/06/23 16:23:40;;;;;;;16.90;10.70;;;;;;;;;;4899859;29;20048;-77
2023/06/23 16:26:26;;;;;;;31.90;12.57;;;;;;;;;;4900420;29;20041;-79
2023/06/23 16:29:11;;;;;;;30.80;14.98;;;;;;;;;;4909930;29;20487;-79
2023/06/23 16:31:57;;;;;;;22.08;11.38;;;;;;;;;;4913535;29;20041;-79
2023/06/23 16:34:43;;;;;;;22.02;10.63;;;;;;;;;;4899996;29;20056;-78
2023/06/23 16:37:28;;;;;;;22.98;11.15;;;;;;;;;;4901384;29;20048;-77
2023/06/23 16:40:15;;;;;;;22.73;11.70;;;;;;;;;;4900304;29;20407;-79
2023/06/23 16:43:02;;;;;;;29.55;11.52;;;;;;;;;;4908306;29;20375;-80
2023/06/23 16:45:48;;;;;;;21.73;11.48;;;;;;;;;;4907086;29;20479;-80
2023/06/23 16:48:33;;;;;;;24.35;12.70;;;;;;;;;;4906223;29;20398;-77
2023/06/23 16:51:20;;;;;;;26.65;14.18;;;;;;;;;;4891923;29;20040;-78
2023/06/23 16:54:05;;;;;;;28.60;14.98;;;;;;;;;;4905712;29;20048;-76
2023/06/23 16:56:51;;;;;;;27.38;13.60;;;;;;;;;;4905665;29;20052;-76
2023/06/23 16:59:36;;;;;;;25.92;12.18;;;;;;;;;;4898568;29;20040;-76
2023/06/23 17:02:22;;;;;;;28.42;12.77;;;;;;;;;;4905641;29;20056;-76
2023/06/23 17:05:08;;;;;;;29.77;13.07;;;;;;;;;;4898669;29;20040;-75
2023/06/23 17:07:54;;;;;;;28.92;13.07;;;;;;;;;;4889953;29;20048;-76
2023/06/23 17:10:40;;;;;;;25.58;13.30;;;;;;;;;;4898362;29;20048;-75
2023/06/23 17:13:25;;;;;;;31.13;13.40;;;;;;;;;;4898425;29;20053;-76
2023/06/23 17:16:11;;;;;;;23.08;12.77;;;;;;;;;;4898913;29;20044;-76
2023/06/23 17:18:57;;;;;;;22.33;12.77;;;;;;;;;;4899069;29;20049;-76
2023/06/23 17:21:42;;;;;;;21.58;11.57;;;;;;;;;;4898967;29;20045;-77
2023/06/23 17:24:28;;;;;;;20.20;11.25;;;;;;;;;;4904492;29;20048;-78
2023/06/23 17:27:13;;;;;;;25.08;11.40;;;;;;;;;;4898870;29;20048;-79
2023/06/23 17:30:01;;;;;;;27.33;12.88;;;;;;;;;;4905805;29;20045;-78
2023/06/23 17:32:49;;;;;;;25.42;12.88;;;;;;;;;;4905171;29;20044;-79
2023/06/23 17:35:35;;;;;;;26.00;13.18;;;;;;;;;;4891964;29;20056;-79
2023/06/23 17:38:21;;;;;;;25.88;13.75;;;;;;;;;;4906211;29;20052;-78
2023/06/23 17:41:06;;;;;;;28.42;14.10;;;;;;;;;;4905358;29;20052;-78
2023/06/23 17:43:52;;;;;;;26.25;13.93;;;;;;;;;;4907262;29;20052;-78
2023/06/23 17:46:37;;;;;;;32.95;14.75;;;;;;;;;;4898954;29;20407;-77
2023/06/23 17:49:23;;;;;;;29.77;13.90;;;;;;;;;;4898817;29;20048;-78
2023/06/23 17:52:09;;;;;;;30.15;13.07;;;;;;;;;;4899308;29;20048;-79
2023/06/23 17:54:55;;;;;;;24.60;13.95;;;;;;;;;;4902712;29;20501;-79
2023/06/23 17:57:40;;;;;;;25.75;13.60;;;;;;;;;;4909269;29;20052;-79
2023/06/23 18:00:25;;;;;;;33.92;15.38;;;;;;;;;;4908528;29;20045;-79
2023/06/23 18:03:11;;;;;;;25.83;13.90;;;;;;;;;;4908838;29;20044;-78
2023/06/23 18:05:56;;;;;;;30.45;13.85;;;;;;;;;;4895230;29;20041;-79
2023/06/23 18:08:42;;;;;;;27.83;13.45;;;;;;;;;;4902610;29;20050;-78
2023/06/23 18:11:28;;;;;;;23.17;12.50;;;;;;;;;;4901835;29;20044;-77
2023/06/23 18:14:13;;;;;;;29.25;13.75;;;;;;;;;;4904542;29;20491;-76
2023/06/23 18:16:59;;;;;;;27.85;13.70;;;;;;;;;;4908099;29;20040;-77
2023/06/23 18:19:45;;;;;;;28.13;13.38;;;;;;;;;;4902025;29;20041;-77
2023/06/23 18:22:30;;;;;;;32.55;12.95;;;;;;;;;;4908022;29;20052;-77
2023/06/23 18:25:16;;;;;;;30.50;13.25;;;;;;;;;;4902470;29;20403;-77